sensor_id;sensor_type;location;lat;lon;timestamp;pressure;altitude;pressure_sealevel;temperature;humidity
40730;BME280;26418;50.070;8.436;2023-03-08T00:01:27;98516.28;;;2.49;92.32
40730;BME280;26418;50.070;8.436;2023-03-08T00:03:54;98523.69;;;2.58;91.94
40730;BME280;26418;50.070;8.436;2023-03-08T00:06:20;98527.19;;;2.53;92.51
40730;BME280;26418;50.070;8.436;2023-03-08T00:08:46;98526.97;;;2.49;92.24
40730;BME280;26418;50.070;8.436;2023-03-08T00:11:13;98525.94;;;2.45;92.72
40730;BME280;26418;50.070;8.436;2023-03-08T00:13:38;98532.16;;;2.35;93.50
40730;BME280;26418;50.070;8.436;2023-03-08T00:16:07;98529.78;;;2.34;93.94
40730;BME280;26418;50.070;8.436;2023-03-08T00:18:34;98519.06;;;2.39;94.02
40730;BME280;26418;50.070;8.436;2023-03-08T00:21:09;98527.88;;;2.40;93.79
40730;BME280;26418;50.070;8.436;2023-03-08T00:23:34;98512.16;;;2.33;93.78
40730;BME280;26418;50.070;8.436;2023-03-08T00:26:00;98529.16;;;2.42;94.14
40730;BME280;26418;50.070;8.436;2023-03-08T00:28:26;98524.34;;;2.44;93.79
40730;BME280;26418;50.070;8.436;2023-03-08T00:30:59;98529.94;;;2.48;94.17
40730;BME280;26418;50.070;8.436;2023-03-08T00:33:26;98525.91;;;2.50;93.24
40730;BME280;26418;50.070;8.436;2023-03-08T00:36:05;98529.59;;;2.55;93.02
40730;BME280;26418;50.070;8.436;2023-03-08T00:38:32;98526.09;;;2.59;93.38
40730;BME280;26418;50.070;8.436;2023-03-08T00:40:58;98516.81;;;2.51;92.54
40730;BME280;26418;50.070;8.436;2023-03-08T00:43:23;98531.66;;;2.63;92.38
40730;BME280;26418;50.070;8.436;2023-03-08T00:45:49;98528.19;;;2.62;92.21
40730;BME280;26418;50.070;8.436;2023-03-08T00:48:14;98535.41;;;2.62;92.30
40730;BME280;26418;50.070;8.436;2023-03-08T00:50:40;98527.41;;;2.62;92.67
40730;BME280;26418;50.070;8.436;2023-03-08T00:53:05;98521.44;;;2.70;92.70
40730;BME280;26418;50.070;8.436;2023-03-08T00:55:31;98516.03;;;2.75;92.85
40730;BME280;26418;50.070;8.436;2023-03-08T00:57:56;98515.78;;;2.77;92.14
40730;BME280;26418;50.070;8.436;2023-03-08T01:00:22;98509.69;;;2.71;92.04
40730;BME280;26418;50.070;8.436;2023-03-08T01:02:48;98522.44;;;2.74;92.00
40730;BME280;26418;50.070;8.436;2023-03-08T01:05:13;98513.97;;;2.72;92.54
40730;BME280;26418;50.070;8.436;2023-03-08T01:07:38;98519.97;;;2.83;92.74
40730;BME280;26418;50.070;8.436;2023-03-08T01:10:04;98513.56;;;2.84;92.39
40730;BME280;26418;50.070;8.436;2023-03-08T01:12:34;98512.19;;;2.87;92.35
40730;BME280;26418;50.070;8.436;2023-03-08T01:15:00;98517.53;;;2.87;92.41
40730;BME280;26418;50.070;8.436;2023-03-08T01:17:26;98500.78;;;2.81;92.46
40730;BME280;26418;50.070;8.436;2023-03-08T01:19:51;98501.84;;;2.80;92.40
40730;BME280;26418;50.070;8.436;2023-03-08T01:22:16;98509.56;;;2.81;92.56
40730;BME280;26418;50.070;8.436;2023-03-08T01:24:46;98507.47;;;2.78;92.54
40730;BME280;26418;50.070;8.436;2023-03-08T01:27:11;98505.88;;;2.77;92.99
40730;BME280;26418;50.070;8.436;2023-03-08T01:29:37;98502.44;;;2.77;93.31
40730;BME280;26418;50.070;8.436;2023-03-08T01:32:02;98492.81;;;2.76;93.47
40730;BME280;26418;50.070;8.436;2023-03-08T01:34:28;98495.75;;;2.74;93.76
40730;BME280;26418;50.070;8.436;2023-03-08T01:36:53;98492.00;;;2.75;93.97
40730;BME280;26418;50.070;8.436;2023-03-08T01:39:18;98476.28;;;2.74;94.45
40730;BME280;26418;50.070;8.436;2023-03-08T01:41:44;98477.59;;;2.76;94.49
40730;BME280;26418;50.070;8.436;2023-03-08T01:44:15;98471.97;;;2.78;94.61
40730;BME280;26418;50.070;8.436;2023-03-08T01:46:40;98457.09;;;2.72;94.26
40730;BME280;26418;50.070;8.436;2023-03-08T01:49:16;98479.13;;;2.82;94.46
40730;BME280;26418;50.070;8.436;2023-03-08T01:54:46;98474.59;;;2.83;94.87
40730;BME280;26418;50.070;8.436;2023-03-08T01:59:43;98464.13;;;2.87;95.01
40730;BME280;26418;50.070;8.436;2023-03-08T02:02:10;98465.72;;;2.88;95.00
40730;BME280;26418;50.070;8.436;2023-03-08T02:04:36;98460.66;;;2.86;94.83
40730;BME280;26418;50.070;8.436;2023-03-08T02:07:03;98456.91;;;2.87;94.65
40730;BME280;26418;50.070;8.436;2023-03-08T02:09:28;98442.78;;;2.87;94.86
40730;BME280;26418;50.070;8.436;2023-03-08T02:11:58;98438.22;;;2.87;95.31
40730;BME280;26418;50.070;8.436;2023-03-08T02:14:25;98431.78;;;2.88;95.14
40730;BME280;26418;50.070;8.436;2023-03-08T02:16:51;98432.00;;;2.92;95.11
40730;BME280;26418;50.070;8.436;2023-03-08T02:19:28;98427.25;;;2.89;95.18
40730;BME280;26418;50.070;8.436;2023-03-08T02:21:56;98431.75;;;2.93;95.29
40730;BME280;26418;50.070;8.436;2023-03-08T02:24:23;98418.41;;;2.93;95.19
40730;BME280;26418;50.070;8.436;2023-03-08T02:26:51;98412.25;;;2.93;95.18
40730;BME280;26418;50.070;8.436;2023-03-08T02:29:21;98413.06;;;2.93;95.26
40730;BME280;26418;50.070;8.436;2023-03-08T02:31:46;98409.88;;;2.91;95.05
40730;BME280;26418;50.070;8.436;2023-03-08T02:34:11;98404.22;;;2.93;94.85
40730;BME280;26418;50.070;8.436;2023-03-08T02:36:37;98407.94;;;2.97;94.99
40730;BME280;26418;50.070;8.436;2023-03-08T02:39:02;98406.34;;;2.96;94.92
40730;BME280;26418;50.070;8.436;2023-03-08T02:41:27;98412.47;;;2.96;95.14
40730;BME280;26418;50.070;8.436;2023-03-08T02:43:53;98399.44;;;2.90;94.93
40730;BME280;26418;50.070;8.436;2023-03-08T02:46:18;98404.75;;;2.95;95.13
40730;BME280;26418;50.070;8.436;2023-03-08T02:48:43;98407.41;;;2.95;95.12
40730;BME280;26418;50.070;8.436;2023-03-08T02:51:10;98403.16;;;2.94;95.06
40730;BME280;26418;50.070;8.436;2023-03-08T02:53:35;98393.56;;;2.93;95.15
40730;BME280;26418;50.070;8.436;2023-03-08T02:56:00;98388.50;;;2.91;95.29
40730;BME280;26418;50.070;8.436;2023-03-08T02:58:26;98393.03;;;2.91;95.24
40730;BME280;26418;50.070;8.436;2023-03-08T03:00:51;98394.41;;;2.88;95.25
40730;BME280;26418;50.070;8.436;2023-03-08T03:03:16;98389.38;;;2.87;95.40
40730;BME280;26418;50.070;8.436;2023-03-08T03:05:43;98389.38;;;2.87;95.40
40730;BME280;26418;50.070;8.436;2023-03-08T03:08:10;98387.78;;;2.86;95.67
40730;BME280;26418;50.070;8.436;2023-03-08T03:10:36;98388.56;;;2.86;95.59
40730;BME280;26418;50.070;8.436;2023-03-08T03:13:02;98387.25;;;2.83;95.58
40730;BME280;26418;50.070;8.436;2023-03-08T03:15:28;98383.50;;;2.85;95.77
40730;BME280;26418;50.070;8.436;2023-03-08T03:17:53;98378.97;;;2.85;95.67
40730;BME280;26418;50.070;8.436;2023-03-08T03:20:19;98373.13;;;2.83;95.74
40730;BME280;26418;50.070;8.436;2023-03-08T03:22:44;98367.28;;;2.81;95.67
40730;BME280;26418;50.070;8.436;2023-03-08T03:25:11;98375.94;;;2.92;95.57
40730;BME280;26418;50.070;8.436;2023-03-08T03:27:36;98365.25;;;2.92;95.51
40730;BME280;26418;50.070;8.436;2023-03-08T03:30:03;98366.56;;;2.94;95.42
40730;BME280;26418;50.070;8.436;2023-03-08T03:32:28;98356.25;;;2.88;95.36
40730;BME280;26418;50.070;8.436;2023-03-08T03:34:54;98380.41;;;2.96;95.08
40730;BME280;26418;50.070;8.436;2023-03-08T03:37:19;98374.56;;;2.94;94.70
40730;BME280;26418;50.070;8.436;2023-03-08T03:39:44;98368.44;;;2.94;94.72
40730;BME280;26418;50.070;8.436;2023-03-08T03:42:10;98361.38;;;2.84;94.88
40730;BME280;26418;50.070;8.436;2023-03-08T03:44:35;98379.91;;;2.94;94.71
40730;BME280;26418;50.070;8.436;2023-03-08T03:47:01;98373.88;;;2.89;94.57
40730;BME280;26418;50.070;8.436;2023-03-08T03:49:26;98376.78;;;2.87;94.28
40730;BME280;26418;50.070;8.436;2023-03-08T03:51:51;98361.94;;;2.81;94.45
40730;BME280;26418;50.070;8.436;2023-03-08T03:54:16;98353.41;;;2.79;94.43
40730;BME280;26418;50.070;8.436;2023-03-08T03:56:42;98363.00;;;2.80;94.62
40730;BME280;26418;50.070;8.436;2023-03-08T03:59:07;98360.34;;;2.80;94.63
40730;BME280;26418;50.070;8.436;2023-03-08T04:01:32;98359.03;;;2.77;94.69
40730;BME280;26418;50.070;8.436;2023-03-08T04:03:58;98352.03;;;2.81;94.71
40730;BME280;26418;50.070;8.436;2023-03-08T04:06:26;98360.34;;;2.80;94.81
40730;BME280;26418;50.070;8.436;2023-03-08T04:08:53;98357.16;;;2.78;94.55
40730;BME280;26418;50.070;8.436;2023-03-08T04:11:21;98360.63;;;2.78;94.64
40730;BME280;26418;50.070;8.436;2023-03-08T04:13:47;98359.03;;;2.77;94.74
40730;BME280;26418;50.070;8.436;2023-03-08T04:16:21;98345.47;;;2.74;94.64
40730;BME280;26418;50.070;8.436;2023-03-08T04:18:46;98344.03;;;2.81;94.68
40730;BME280;26418;50.070;8.436;2023-03-08T04:21:13;98344.53;;;2.83;94.82
40730;BME280;26418;50.070;8.436;2023-03-08T04:23:38;98334.38;;;2.86;94.65
40730;BME280;26418;50.070;8.436;2023-03-08T04:26:05;98336.47;;;2.89;94.81
40730;BME280;26418;50.070;8.436;2023-03-08T04:28:31;98331.13;;;2.89;94.23
40730;BME280;26418;50.070;8.436;2023-03-08T04:30:58;98320.88;;;2.96;94.03
40730;BME280;26418;50.070;8.436;2023-03-08T04:33:24;98312.78;;;3.01;93.56
40730;BME280;26418;50.070;8.436;2023-03-08T04:35:49;98314.69;;;3.01;93.37
40730;BME280;26418;50.070;8.436;2023-03-08T04:38:14;98311.78;;;2.97;93.27
40730;BME280;26418;50.070;8.436;2023-03-08T04:40:48;98314.69;;;3.01;93.19
40730;BME280;26418;50.070;8.436;2023-03-08T04:43:30;98313.66;;;2.96;93.49
40730;BME280;26418;50.070;8.436;2023-03-08T04:45:56;98305.22;;;2.89;93.39
40730;BME280;26418;50.070;8.436;2023-03-08T04:48:21;98307.16;;;2.83;93.77
40730;BME280;26418;50.070;8.436;2023-03-08T04:50:54;98304.06;;;2.76;93.82
40730;BME280;26418;50.070;8.436;2023-03-08T04:53:20;98307.97;;;2.84;94.89
40730;BME280;26418;50.070;8.436;2023-03-08T04:55:46;98306.81;;;2.90;95.06
40730;BME280;26418;50.070;8.436;2023-03-08T04:58:11;98296.44;;;2.89;94.54
40730;BME280;26418;50.070;8.436;2023-03-08T05:00:36;98299.66;;;2.86;94.70
40730;BME280;26418;50.070;8.436;2023-03-08T05:03:02;98300.22;;;2.82;94.95
40730;BME280;26418;50.070;8.436;2023-03-08T05:05:27;98305.88;;;2.81;95.30
40730;BME280;26418;50.070;8.436;2023-03-08T05:07:52;98300.75;;;2.85;95.78
40730;BME280;26418;50.070;8.436;2023-03-08T05:10:18;98296.22;;;2.85;95.60
40730;BME280;26418;50.070;8.436;2023-03-08T05:12:43;98288.22;;;2.85;95.70
40730;BME280;26418;50.070;8.436;2023-03-08T05:15:09;98280.19;;;2.85;95.33
40730;BME280;26418;50.070;8.436;2023-03-08T05:17:35;98278.88;;;2.82;95.07
40730;BME280;26418;50.070;8.436;2023-03-08T05:20:00;98275.72;;;2.80;95.05
40730;BME280;26418;50.070;8.436;2023-03-08T05:22:26;98278.38;;;2.80;94.75
40730;BME280;26418;50.070;8.436;2023-03-08T05:24:51;98285.28;;;2.81;94.85
40730;BME280;26418;50.070;8.436;2023-03-08T05:27:17;98270.88;;;2.82;94.45
40730;BME280;26418;50.070;8.436;2023-03-08T05:29:42;98272.53;;;2.78;93.45
40730;BME280;26418;50.070;8.436;2023-03-08T05:32:11;98278.38;;;2.80;90.87
40730;BME280;26418;50.070;8.436;2023-03-08T05:34:36;98259.97;;;2.79;90.28
40730;BME280;26418;50.070;8.436;2023-03-08T05:37:02;98257.50;;;2.82;90.37
40730;BME280;26418;50.070;8.436;2023-03-08T05:39:27;98252.19;;;2.82;89.85
40730;BME280;26418;50.070;8.436;2023-03-08T05:41:54;98247.03;;;2.86;89.69
40730;BME280;26418;50.070;8.436;2023-03-08T05:44:19;98238.81;;;2.82;89.27
40730;BME280;26418;50.070;8.436;2023-03-08T05:46:45;98240.41;;;2.83;88.10
40730;BME280;26418;50.070;8.436;2023-03-08T05:49:10;98244.69;;;2.85;88.28
40730;BME280;26418;50.070;8.436;2023-03-08T05:51:35;98240.72;;;2.82;88.41
40730;BME280;26418;50.070;8.436;2023-03-08T05:54:00;98240.22;;;2.80;88.45
40730;BME280;26418;50.070;8.436;2023-03-08T05:56:26;98232.72;;;2.82;89.13
40730;BME280;26418;50.070;8.436;2023-03-08T05:58:51;98234.25;;;3.02;93.93
40730;BME280;26418;50.070;8.436;2023-03-08T06:01:19;98234.31;;;3.16;94.65
40730;BME280;26418;50.070;8.436;2023-03-08T06:03:47;98227.38;;;3.15;92.29
40730;BME280;26418;50.070;8.436;2023-03-08T06:06:13;98228.59;;;3.23;92.68
40730;BME280;26418;50.070;8.436;2023-03-08T06:08:39;98237.69;;;3.22;93.12
40730;BME280;26418;50.070;8.436;2023-03-08T06:11:05;98255.41;;;3.32;93.95
40730;BME280;26418;50.070;8.436;2023-03-08T06:13:31;98261.69;;;3.41;94.80
40730;BME280;26418;50.070;8.436;2023-03-08T06:15:57;98247.34;;;3.51;93.23
40730;BME280;26418;50.070;8.436;2023-03-08T06:18:24;98224.09;;;3.51;93.18
40730;BME280;26418;50.070;8.436;2023-03-08T06:21:03;98223.56;;;3.35;91.33
40730;BME280;26418;50.070;8.436;2023-03-08T06:23:30;98232.38;;;3.36;91.26
40730;BME280;26418;50.070;8.436;2023-03-08T06:25:57;98227.00;;;3.22;90.45
40730;BME280;26418;50.070;8.436;2023-03-08T06:28:23;98239.03;;;3.19;90.18
40730;BME280;26418;50.070;8.436;2023-03-08T06:30:49;98225.06;;;3.08;89.67
40730;BME280;26418;50.070;8.436;2023-03-08T06:33:18;98210.13;;;2.93;90.34
40730;BME280;26418;50.070;8.436;2023-03-08T06:35:58;98223.69;;;3.11;91.71
40730;BME280;26418;50.070;8.436;2023-03-08T06:38:24;98215.69;;;3.11;91.42
40730;BME280;26418;50.070;8.436;2023-03-08T06:40:49;98217.34;;;3.07;90.88
40730;BME280;26418;50.070;8.436;2023-03-08T06:43:15;98204.97;;;2.97;89.83
40730;BME280;26418;50.070;8.436;2023-03-08T06:45:40;98207.13;;;2.95;90.04
40730;BME280;26418;50.070;8.436;2023-03-08T06:48:06;98209.31;;;2.93;89.97
40730;BME280;26418;50.070;8.436;2023-03-08T06:50:32;98202.25;;;2.83;89.15
40730;BME280;26418;50.070;8.436;2023-03-08T06:52:57;98193.41;;;2.69;88.48
40730;BME280;26418;50.070;8.436;2023-03-08T06:55:23;98189.16;;;2.67;89.13
40730;BME280;26418;50.070;8.436;2023-03-08T06:57:48;98192.19;;;2.61;89.46
40730;BME280;26418;50.070;8.436;2023-03-08T07:00:14;98197.22;;;2.62;89.27
40730;BME280;26418;50.070;8.436;2023-03-08T07:02:39;98190.91;;;2.58;89.30
40730;BME280;26418;50.070;8.436;2023-03-08T07:05:05;98192.28;;;2.56;89.37
40730;BME280;26418;50.070;8.436;2023-03-08T07:07:30;98191.66;;;2.59;89.18
40730;BME280;26418;50.070;8.436;2023-03-08T07:09:56;98193.06;;;2.56;89.08
40730;BME280;26418;50.070;8.436;2023-03-08T07:12:22;98189.31;;;2.57;89.53
40730;BME280;26418;50.070;8.436;2023-03-08T07:14:47;98185.75;;;2.62;89.65
40730;BME280;26418;50.070;8.436;2023-03-08T07:17:13;98178.63;;;2.57;89.48
40730;BME280;26418;50.070;8.436;2023-03-08T07:19:38;98189.50;;;2.61;89.64
40730;BME280;26418;50.070;8.436;2023-03-08T07:22:03;98186.28;;;2.64;90.79
40730;BME280;26418;50.070;8.436;2023-03-08T07:24:29;98164.13;;;2.63;90.77
40730;BME280;26418;50.070;8.436;2023-03-08T07:26:54;98151.66;;;2.59;89.47
40730;BME280;26418;50.070;8.436;2023-03-08T07:29:19;98161.66;;;2.67;89.76
40730;BME280;26418;50.070;8.436;2023-03-08T07:31:45;98153.94;;;2.65;89.54
40730;BME280;26418;50.070;8.436;2023-03-08T07:34:10;98149.69;;;2.64;89.04
40730;BME280;26418;50.070;8.436;2023-03-08T07:36:36;98147.19;;;2.54;88.34
40730;BME280;26418;50.070;8.436;2023-03-08T07:39:03;98138.97;;;2.50;88.95
40730;BME280;26418;50.070;8.436;2023-03-08T07:41:29;98127.88;;;2.43;89.18
40730;BME280;26418;50.070;8.436;2023-03-08T07:43:55;98118.94;;;2.34;89.12
40730;BME280;26418;50.070;8.436;2023-03-08T07:46:21;98116.34;;;2.29;89.32
40730;BME280;26418;50.070;8.436;2023-03-08T07:48:46;98099.72;;;2.18;89.81
40730;BME280;26418;50.070;8.436;2023-03-08T07:51:12;98107.13;;;2.21;90.37
40730;BME280;26418;50.070;8.436;2023-03-08T07:53:37;98105.53;;;2.20;90.68
40730;BME280;26418;50.070;8.436;2023-03-08T07:56:03;98093.88;;;2.16;90.83
40730;BME280;26418;50.070;8.436;2023-03-08T07:58:28;98094.44;;;2.13;90.73
40730;BME280;26418;50.070;8.436;2023-03-08T08:00:54;98097.19;;;2.08;91.25
40730;BME280;26418;50.070;8.436;2023-03-08T08:03:19;98088.78;;;2.00;91.71
40730;BME280;26418;50.070;8.436;2023-03-08T08:05:44;98083.16;;;2.02;91.96
40730;BME280;26418;50.070;8.436;2023-03-08T08:08:10;98083.44;;;2.00;92.04
40730;BME280;26418;50.070;8.436;2023-03-08T08:10:41;98074.56;;;2.05;93.29
40730;BME280;26418;50.070;8.436;2023-03-08T08:13:07;98067.66;;;2.04;93.68
40730;BME280;26418;50.070;8.436;2023-03-08T08:15:33;98067.34;;;2.06;92.80
40730;BME280;26418;50.070;8.436;2023-03-08T08:17:58;98049.78;;;1.85;92.41
40730;BME280;26418;50.070;8.436;2023-03-08T08:20:24;98044.31;;;1.77;93.08
40730;BME280;26418;50.070;8.436;2023-03-08T08:22:51;98043.81;;;1.75;93.61
40730;BME280;26418;50.070;8.436;2023-03-08T08:25:18;98018.59;;;1.67;94.08
40730;BME280;26418;50.070;8.436;2023-03-08T08:27:44;98037.91;;;1.78;94.34
40730;BME280;26418;50.070;8.436;2023-03-08T08:30:12;98028.41;;;1.71;94.43
40730;BME280;26418;50.070;8.436;2023-03-08T08:32:39;98030.56;;;1.69;94.50
40730;BME280;26418;50.070;8.436;2023-03-08T08:35:05;98030.19;;;1.76;94.45
40730;BME280;26418;50.070;8.436;2023-03-08T08:37:32;98030.78;;;1.73;94.78
40730;BME280;26418;50.070;8.436;2023-03-08T08:39:58;98031.56;;;1.73;94.67
40730;BME280;26418;50.070;8.436;2023-03-08T08:42:23;98012.06;;;1.59;94.65
40730;BME280;26418;50.070;8.436;2023-03-08T08:44:51;98027.88;;;1.69;94.54
40730;BME280;26418;50.070;8.436;2023-03-08T08:47:17;98011.25;;;1.59;94.61
40730;BME280;26418;50.070;8.436;2023-03-08T08:49:42;98016.28;;;1.60;94.69
40730;BME280;26418;50.070;8.436;2023-03-08T08:52:07;98004.84;;;1.60;94.74
40730;BME280;26418;50.070;8.436;2023-03-08T08:54:33;97984.91;;;1.57;95.60
40730;BME280;26418;50.070;8.436;2023-03-08T08:56:58;97977.47;;;1.73;97.04
40730;BME280;26418;50.070;8.436;2023-03-08T08:59:24;97967.47;;;1.84;96.87
40730;BME280;26418;50.070;8.436;2023-03-08T09:01:49;97959.94;;;1.86;96.44
40730;BME280;26418;50.070;8.436;2023-03-08T09:04:15;97952.56;;;1.83;95.72
40730;BME280;26418;50.070;8.436;2023-03-08T09:06:40;97962.81;;;1.89;95.54
40730;BME280;26418;50.070;8.436;2023-03-08T09:09:06;97971.31;;;1.92;94.80
40730;BME280;26418;50.070;8.436;2023-03-08T09:11:32;97956.00;;;1.83;94.63
40730;BME280;26418;50.070;8.436;2023-03-08T09:13:59;97955.00;;;1.79;94.00
40730;BME280;26418;50.070;8.436;2023-03-08T09:16:29;97952.63;;;1.78;94.03
40730;BME280;26418;50.070;8.436;2023-03-08T09:18:55;97959.31;;;1.75;94.13
40730;BME280;26418;50.070;8.436;2023-03-08T09:21:23;97969.97;;;1.75;94.46
40730;BME280;26418;50.070;8.436;2023-03-08T09:23:48;97968.41;;;1.74;94.13
40730;BME280;26418;50.070;8.436;2023-03-08T09:26:14;97947.88;;;1.75;94.13
40730;BME280;26418;50.070;8.436;2023-03-08T09:28:39;97965.72;;;1.74;94.31
40730;BME280;26418;50.070;8.436;2023-03-08T09:31:10;97954.59;;;1.72;94.90
40730;BME280;26418;50.070;8.436;2023-03-08T09:33:40;97959.41;;;1.70;94.63
40730;BME280;26418;50.070;8.436;2023-03-08T09:36:06;97954.09;;;1.70;94.82
40730;BME280;26418;50.070;8.436;2023-03-08T09:38:31;97953.88;;;1.66;94.56
40730;BME280;26418;50.070;8.436;2023-03-08T09:41:11;97933.22;;;1.58;95.04
40730;BME280;26418;50.070;8.436;2023-03-08T09:46:16;97938.88;;;1.70;95.11
40730;BME280;26418;50.070;8.436;2023-03-08T09:48:48;97939.47;;;1.67;94.59
40730;BME280;26418;50.070;8.436;2023-03-08T09:51:17;97935.22;;;1.66;94.90
40730;BME280;26418;50.070;8.436;2023-03-08T09:53:59;97954.94;;;1.65;94.89
40730;BME280;26418;50.070;8.436;2023-03-08T09:56:37;97953.38;;;1.64;95.08
40730;BME280;26418;50.070;8.436;2023-03-08T09:59:18;97930.03;;;1.56;95.20
40730;BME280;26418;50.070;8.436;2023-03-08T10:02:12;97937.38;;;1.64;95.38
40730;BME280;26418;50.070;8.436;2023-03-08T10:05:01;97930.16;;;1.65;95.71
40730;BME280;26418;50.070;8.436;2023-03-08T10:12:55;97885.69;;;1.65;96.77
40730;BME280;26418;50.070;8.436;2023-03-08T10:15:25;97887.06;;;1.77;96.71
40730;BME280;26418;50.070;8.436;2023-03-08T10:18:02;97899.94;;;1.88;96.20
40730;BME280;26418;50.070;8.436;2023-03-08T10:20:32;97902.00;;;1.92;96.06
40730;BME280;26418;50.070;8.436;2023-03-08T10:23:19;97894.53;;;1.94;95.63
40730;BME280;26418;50.070;8.436;2023-03-08T10:25:46;97885.50;;;1.89;95.49
40730;BME280;26418;50.070;8.436;2023-03-08T10:28:15;97894.53;;;1.94;95.20
40730;BME280;26418;50.070;8.436;2023-03-08T10:30:47;97875.66;;;1.90;95.01
40730;BME280;26418;50.070;8.436;2023-03-08T10:33:15;97864.66;;;1.78;94.93
40730;BME280;26418;50.070;8.436;2023-03-08T10:38:33;97872.00;;;1.86;95.13
40730;BME280;26418;50.070;8.436;2023-03-08T10:41:01;97846.13;;;1.72;95.05
40730;BME280;26418;50.070;8.436;2023-03-08T10:43:29;97850.47;;;1.82;95.38
40730;BME280;26418;50.070;8.436;2023-03-08T10:46:13;97840.59;;;1.83;95.08
40730;BME280;26418;50.070;8.436;2023-03-08T10:48:40;97823.41;;;1.75;95.31
40730;BME280;26418;50.070;8.436;2023-03-08T10:51:15;97826.47;;;1.82;95.67
40730;BME280;26418;50.070;8.436;2023-03-08T10:54:09;97827.69;;;1.90;95.56
40730;BME280;26418;50.070;8.436;2023-03-08T10:56:42;97832.50;;;1.88;95.60
40730;BME280;26418;50.070;8.436;2023-03-08T10:59:37;97829.84;;;1.88;95.86
40730;BME280;26418;50.070;8.436;2023-03-08T11:04:37;97823.13;;;1.91;96.00
40730;BME280;26418;50.070;8.436;2023-03-08T11:07:14;97812.97;;;1.93;96.15
40730;BME280;26418;50.070;8.436;2023-03-08T11:09:44;97796.06;;;1.83;96.17
40730;BME280;26418;50.070;8.436;2023-03-08T11:12:21;97807.16;;;2.04;96.49
40730;BME280;26418;50.070;8.436;2023-03-08T11:14:47;97815.66;;;2.07;96.46
40730;BME280;26418;50.070;8.436;2023-03-08T11:17:26;97810.50;;;2.10;96.40
40730;BME280;26418;50.070;8.436;2023-03-08T11:20:22;97813.69;;;2.12;96.24
40730;BME280;26418;50.070;8.436;2023-03-08T11:23:08;97812.59;;;2.13;96.21
40730;BME280;26418;50.070;8.436;2023-03-08T11:25:46;97807.53;;;2.12;96.48
40730;BME280;26418;50.070;8.436;2023-03-08T11:28:31;97809.44;;;2.11;96.53
40730;BME280;26418;50.070;8.436;2023-03-08T11:34:04;97813.19;;;2.24;96.89
40730;BME280;26418;50.070;8.436;2023-03-08T11:36:44;97787.91;;;2.22;96.82
40730;BME280;26418;50.070;8.436;2023-03-08T11:58:29;97779.03;;;2.63;97.30
40730;BME280;26418;50.070;8.436;2023-03-08T12:01:02;97767.56;;;2.62;97.34
40730;BME280;26418;50.070;8.436;2023-03-08T12:03:37;97766.66;;;2.67;96.05
40730;BME280;26418;50.070;8.436;2023-03-08T12:06:13;97771.50;;;2.65;95.87
40730;BME280;26418;50.070;8.436;2023-03-08T12:09:05;97769.94;;;2.64;96.27
40730;BME280;26418;50.070;8.436;2023-03-08T12:11:40;97762.72;;;2.64;96.48
40730;BME280;26418;50.070;8.436;2023-03-08T12:14:17;97752.22;;;2.68;97.07
40730;BME280;26418;50.070;8.436;2023-03-08T12:16:49;97771.31;;;2.61;96.62
40730;BME280;26418;50.070;8.436;2023-03-08T12:19:34;97755.59;;;2.60;96.94
40730;BME280;26418;50.070;8.436;2023-03-08T12:28:01;97746.47;;;2.75;97.10
40730;BME280;26418;50.070;8.436;2023-03-08T12:32:57;97730.00;;;2.81;97.55
40730;BME280;26418;50.070;8.436;2023-03-08T12:45:41;97731.78;;;2.86;97.45
40730;BME280;26418;50.070;8.436;2023-03-08T12:48:17;97724.56;;;2.87;97.86
40730;BME280;26418;50.070;8.436;2023-03-08T12:58:32;97712.56;;;2.98;98.17
40730;BME280;26418;50.070;8.436;2023-03-08T13:01:05;97706.41;;;2.97;98.15
40730;BME280;26418;50.070;8.436;2023-03-08T13:03:39;97701.56;;;2.99;97.50
40730;BME280;26418;50.070;8.436;2023-03-08T13:08:56;97715.59;;;3.05;97.09
40730;BME280;26418;50.070;8.436;2023-03-08T13:11:24;97702.69;;;3.07;97.26
40730;BME280;26418;50.070;8.436;2023-03-08T13:14:01;97705.84;;;3.09;96.85
40730;BME280;26418;50.070;8.436;2023-03-08T13:16:35;97708.72;;;3.13;97.42
40730;BME280;26418;50.070;8.436;2023-03-08T13:22:28;97708.41;;;3.14;97.54
40730;BME280;26418;50.070;8.436;2023-03-08T13:29:46;97706.31;;;3.34;98.24
40730;BME280;26418;50.070;8.436;2023-03-08T13:32:15;97698.94;;;3.40;97.97
40730;BME280;26418;50.070;8.436;2023-03-08T13:34:41;97696.88;;;3.37;97.55
40730;BME280;26418;50.070;8.436;2023-03-08T13:37:23;97712.00;;;3.41;97.14
40730;BME280;26418;50.070;8.436;2023-03-08T13:39:53;97699.44;;;3.42;97.27
40730;BME280;26418;50.070;8.436;2023-03-08T13:42:20;97711.81;;;3.38;97.48
40730;BME280;26418;50.070;8.436;2023-03-08T13:45:09;97712.00;;;3.41;97.30
40730;BME280;26418;50.070;8.436;2023-03-08T13:47:42;97699.72;;;3.40;97.01
40730;BME280;26418;50.070;8.436;2023-03-08T13:50:17;97718.31;;;3.45;97.52
40730;BME280;26418;50.070;8.436;2023-03-08T13:52:43;97710.47;;;3.49;98.09
40730;BME280;26418;50.070;8.436;2023-03-08T13:55:17;97695.09;;;3.55;98.86
40730;BME280;26418;50.070;8.436;2023-03-08T13:57:47;97701.72;;;3.66;100.00
40730;BME280;26418;50.070;8.436;2023-03-08T14:00:24;97707.59;;;3.77;100.00
40730;BME280;26418;50.070;8.436;2023-03-08T14:02:51;97697.22;;;3.84;100.00
40730;BME280;26418;50.070;8.436;2023-03-08T14:05:22;97694.72;;;3.97;100.00
40730;BME280;26418;50.070;8.436;2023-03-08T14:08:06;97671.78;;;4.04;100.00
40730;BME280;26418;50.070;8.436;2023-03-08T14:10:36;97680.78;;;4.35;100.00
40730;BME280;26418;50.070;8.436;2023-03-08T14:13:03;97688.16;;;4.29;100.00
40730;BME280;26418;50.070;8.436;2023-03-08T14:15:30;97677.78;;;4.28;100.00
40730;BME280;26418;50.070;8.436;2023-03-08T14:17:58;97681.72;;;4.30;100.00
40730;BME280;26418;50.070;8.436;2023-03-08T14:20:24;97687.53;;;4.23;100.00
40730;BME280;26418;50.070;8.436;2023-03-08T14:22:52;97673.69;;;4.13;100.00
40730;BME280;26418;50.070;8.436;2023-03-08T14:25:23;97671.91;;;3.99;99.85
40730;BME280;26418;50.070;8.436;2023-03-08T14:27:49;97674.88;;;3.80;99.39
40730;BME280;26418;50.070;8.436;2023-03-08T14:30:22;97677.38;;;3.76;99.33
40730;BME280;26418;50.070;8.436;2023-03-08T14:33:00;97663.06;;;3.72;99.92
40730;BME280;26418;50.070;8.436;2023-03-08T14:35:29;97658.66;;;3.68;99.86